Time;durP1;ratioP1;P1;durP2;ratioP2;P2;SDS_P1;SDS_P2;PMS_P1;PMS_P2;Temp;Humidity;BMP_temperature;BMP_pressure;BME280_temperature;BME280_humidity;BME280_pressure;Samples;Min_cycle;Max_cycle;Signal;HPM_P1;HPM_P2
2022/07/27 00:00:19;;;;;;;17.40;12.25;;;;;;;21.37;78.74;96856.75;5051426;28;20056;-80
2022/07/27 00:02:44;;;;;;;20.15;13.90;;;;;;;21.27;79.62;96846.09;5051943;28;20029;-79
2022/07/27 00:05:10;;;;;;;17.60;12.82;;;;;;;21.30;80.70;96850.31;5064854;28;20432;-79
2022/07/27 00:07:36;;;;;;;19.13;13.27;;;;;;;21.28;81.32;96836.06;5056022;28;20025;-80
2022/07/27 00:10:02;;;;;;;19.95;13.45;;;;;;;21.39;82.76;96865.56;5069949;28;20054;-80
2022/07/27 00:12:28;;;;;;;20.83;13.05;;;;;;;21.17;84.03;96839.16;5069955;28;20511;-80
2022/07/27 00:14:54;;;;;;;18.40;12.95;;;;;;;21.31;84.41;96857.47;5053401;28;20049;-80
2022/07/27 00:17:22;;;;;;;16.35;13.60;;;;;;;21.25;84.92;96855.47;5036778;28;20087;-80
2022/07/27 00:19:49;;;;;;;26.40;13.73;;;;;;;21.22;85.72;96862.13;5069841;28;20025;-80
2022/07/27 00:22:15;;;;;;;21.38;14.55;;;;;;;21.25;86.36;96866.34;5055995;28;20029;-79
2022/07/27 00:24:41;;;;;;;20.38;14.38;;;;;;;21.26;85.48;96855.28;5069501;28;20407;-79
2022/07/27 00:27:07;;;;;;;18.67;13.98;;;;;;;21.32;85.91;96864.63;5069971;28;20024;-80
2022/07/27 00:29:33;;;;;;;21.05;13.65;;;;;;;21.29;85.75;96865.78;5069822;28;20017;-80
2022/07/27 00:31:58;;;;;;;19.10;14.20;;;;;;;21.28;86.09;96857.84;5069496;28;20020;-80
2022/07/27 00:34:24;;;;;;;22.98;14.05;;;;;;;21.11;86.37;96842.59;5069704;28;20487;-79
2022/07/27 00:36:49;;;;;;;18.52;13.18;;;;;;;21.15;87.11;96866.56;5049769;28;20024;-79
2022/07/27 00:39:15;;;;;;;22.70;14.70;;;;;;;21.12;86.40;96857.91;5068309;28;20378;-79
2022/07/27 00:41:41;;;;;;;19.17;13.77;;;;;;;21.29;85.87;96884.00;5049946;28;20044;-79
2022/07/27 00:44:06;;;;;;;21.58;15.07;;;;;;;21.27;84.77;96878.75;5036104;28;20033;-79
2022/07/27 00:46:32;;;;;;;21.80;14.77;;;;;;;21.28;85.16;96885.88;5069532;28;20040;-79
2022/07/27 00:48:58;;;;;;;20.08;14.13;;;;;;;21.25;85.14;96880.81;5049259;28;20536;-80
2022/07/27 00:51:24;;;;;;;24.65;14.48;;;;;;;21.23;84.51;96884.69;5063578;28;20404;-79
2022/07/27 00:53:54;;;;;;;23.92;14.48;;;;;;;21.33;83.91;96897.06;5069359;28;20029;-78
2022/07/27 00:56:20;;;;;;;25.58;15.90;;;;;;;21.28;84.15;96888.59;5052509;28;20059;-79
2022/07/27 00:58:48;;;;;;;19.70;13.52;;;;;;;21.18;84.95;96906.16;5069317;28;20459;-79
2022/07/27 01:01:14;;;;;;;17.58;13.02;;;;;;;21.08;85.00;96890.91;5052410;28;20503;-78
2022/07/27 01:03:40;;;;;;;16.33;11.80;;;;;;;21.02;84.82;96885.28;5052578;28;20471;-78
2022/07/27 01:06:06;;;;;;;17.60;12.52;;;;;;;20.86;84.38;96901.63;5052751;28;20107;-80
2022/07/27 01:08:32;;;;;;;22.98;12.88;;;;;;;20.78;84.79;96899.81;5069111;28;20098;-79
2022/07/27 01:10:58;;;;;;;15.73;12.75;;;;;;;20.64;86.04;96886.91;5052532;28;20043;-80
2022/07/27 01:13:25;;;;;;;16.98;12.98;;;;;;;20.54;86.89;96894.44;5070621;28;20460;-79
2022/07/27 01:15:51;;;;;;;17.02;13.40;;;;;;;20.61;87.28;96895.41;5053019;28;20090;-78
2022/07/27 01:18:37;;;;;;;16.85;12.60;;;;;;;20.58;88.42;96887.59;5054466;28;20450;-79
2022/07/27 01:21:05;;;;;;;16.80;12.43;;;;;;;20.54;88.50;96886.28;5052999;28;20166;-79
2022/07/27 01:23:31;;;;;;;16.38;12.93;;;;;;;20.55;88.54;96887.94;5073014;28;20020;-79
2022/07/27 01:26:01;;;;;;;18.10;12.88;;;;;;;20.53;88.64;96895.44;5053771;28;20036;-78
2022/07/27 01:28:27;;;;;;;17.65;12.48;;;;;;;20.53;88.01;96890.84;5047835;28;20021;-79
2022/07/27 01:30:54;;;;;;;17.45;12.93;;;;;;;20.42;88.79;96882.22;5064850;28;20403;-79
2022/07/27 01:33:24;;;;;;;18.58;12.95;;;;;;;20.42;89.46;96882.22;5056424;28;20024;-79
2022/07/27 01:35:52;;;;;;;22.58;13.05;;;;;;;20.50;89.78;96884.91;5056827;28;20914;-79
2022/07/27 01:38:17;;;;;;;18.10;12.82;;;;;;;20.44;90.12;96874.75;5056142;28;20108;-79
2022/07/27 01:40:50;;;;;;;15.95;13.05;;;;;;;20.40;91.24;96890.53;5054349;28;20486;-78
2022/07/27 01:43:16;;;;;;;18.02;13.18;;;;;;;20.34;91.63;96891.22;5054194;28;20044;-80
2022/07/27 01:45:41;;;;;;;17.00;13.30;;;;;;;20.23;92.50;96893.41;5055907;28;20571;-80
2022/07/27 01:48:08;;;;;;;19.92;14.27;;;;;;;20.29;92.75;96903.63;5052803;28;20304;-80
2022/07/27 01:50:34;;;;;;;22.27;15.07;;;;;;;20.19;92.35;96917.34;5065891;28;20090;-78
2022/07/27 01:52:59;;;;;;;21.50;16.45;;;;;;;20.11;92.63;96930.94;5055940;28;20032;-78
2022/07/27 01:55:25;;;;;;;26.38;17.50;;;;;;;19.95;93.00;96934.50;5068510;28;20499;-79
2022/07/27 01:57:51;;;;;;;30.30;18.30;;;;;;;19.77;94.48;96928.34;5054375;28;20107;-80
2022/07/27 02:00:16;;;;;;;29.80;19.33;;;;;;;19.67;96.34;96945.78;5072373;28;20041;-80
2022/07/27 02:02:42;;;;;;;53.67;30.08;;;;;;;19.56;96.73;96927.13;5055486;28;20577;-80
2022/07/27 02:05:11;;;;;;;53.65;37.65;;;;;;;19.68;97.22;96942.06;5053239;28;20435;-80
2022/07/27 02:07:40;;;;;;;41.55;21.88;;;;;;;19.62;97.57;96930.03;5072636;28;20090;-80
2022/07/27 02:10:08;;;;;;;29.08;17.30;;;;;;;19.50;98.55;96933.22;5052746;28;20028;-81
2022/07/27 02:12:36;;;;;;;23.75;16.23;;;;;;;19.41;99.58;96937.78;5055823;28;20142;-80
2022/07/27 02:15:10;;;;;;;18.73;14.65;;;;;;;19.35;100.00;96927.50;5052678;28;20029;-79
2022/07/27 02:17:38;;;;;;;24.77;14.98;;;;;;;19.30;100.00;96927.16;5072203;28;20549;-79
2022/07/27 02:20:05;;;;;;;19.88;13.77;;;;;;;19.42;100.00;96915.03;5072047;28;20024;-79
2022/07/27 02:22:30;;;;;;;18.73;13.65;;;;;;;19.59;98.29;96905.94;5072067;28;20545;-79
2022/07/27 02:24:56;;;;;;;18.00;12.85;;;;;;;19.79;96.19;96923.59;5046848;28;20032;-79
2022/07/27 02:27:22;;;;;;;19.55;13.38;;;;;;;20.01;93.64;96928.38;5055188;28;20029;-80
2022/07/27 02:29:48;;;;;;;17.80;12.65;;;;;;;20.18;91.19;96928.41;5054876;28;20085;-79
2022/07/27 02:32:13;;;;;;;15.40;12.15;;;;;;;20.38;89.28;96929.78;5047317;28;20502;-80
2022/07/27 02:34:39;;;;;;;19.98;14.02;;;;;;;20.47;89.17;96931.47;5063445;28;20116;-80
2022/07/27 02:37:04;;;;;;;20.40;13.82;;;;;;;20.46;89.69;96930.59;5051981;28;20036;-79
2022/07/27 02:39:30;;;;;;;25.70;15.63;;;;;;;20.30;90.10;96935.22;5046597;28;20025;-79
2022/07/27 02:41:56;;;;;;;19.90;14.77;;;;;;;20.10;90.29;96931.09;5071757;28;20479;-79
2022/07/27 02:44:21;;;;;;;21.60;14.10;;;;;;;20.01;91.21;96933.81;5054739;28;20035;-79
2022/07/27 02:46:47;;;;;;;19.85;13.75;;;;;;;19.75;92.61;96935.78;5046498;28;20028;-80
2022/07/27 02:49:13;;;;;;;18.15;13.60;;;;;;;19.76;93.25;96939.38;5071565;28;20103;-79
2022/07/27 02:51:38;;;;;;;20.45;14.38;;;;;;;19.76;93.59;96939.38;5054500;28;20163;-79
2022/07/27 02:54:04;;;;;;;19.95;14.70;;;;;;;19.73;94.33;96936.97;5066147;28;20467;-81
2022/07/27 02:56:29;;;;;;;21.58;14.82;;;;;;;19.69;94.07;96933.75;5054545;28;20105;-80
2022/07/27 02:58:55;;;;;;;21.17;14.18;;;;;;;19.69;94.34;96939.19;5054511;28;20114;-80
2022/07/27 03:01:22;;;;;;;23.05;14.80;;;;;;;19.76;94.23;96948.34;5071259;28;20064;-82
2022/07/27 03:03:47;;;;;;;22.63;14.85;;;;;;;19.82;94.28;96963.97;5053833;28;20512;-80
2022/07/27 03:06:13;;;;;;;19.88;15.27;;;;;;;19.79;94.56;96953.44;5065657;28;20116;-78
2022/07/27 03:08:39;;;;;;;20.42;14.73;;;;;;;19.80;93.95;96954.31;5040506;28;20128;-80
2022/07/27 03:11:05;;;;;;;27.88;15.32;;;;;;;19.87;94.33;96977.88;5075355;28;20029;-81
2022/07/27 03:13:31;;;;;;;26.45;16.02;;;;;;;19.78;94.76;96964.50;5064912;28;20512;-80
2022/07/27 03:15:56;;;;;;;25.38;15.85;;;;;;;19.85;94.62;96968.22;5067707;28;20024;-80
2022/07/27 03:18:22;;;;;;;26.10;17.50;;;;;;;19.73;94.83;96961.41;5052263;28;20085;-80
2022/07/27 03:20:48;;;;;;;28.55;16.95;;;;;;;19.79;94.50;96972.47;5054011;28;20136;-79
2022/07/27 03:23:14;;;;;;;25.10;17.45;;;;;;;19.80;94.08;96970.59;5062895;28;20047;-80
2022/07/27 03:25:40;;;;;;;31.00;18.65;;;;;;;19.83;94.03;96975.69;5037406;28;20048;-81
2022/07/27 03:28:06;;;;;;;27.05;16.88;;;;;;;19.68;94.76;96975.50;5049725;28;20031;-80
2022/07/27 03:30:32;;;;;;;25.13;16.92;;;;;;;19.73;94.90;96977.69;5058422;28;20021;-80
2022/07/27 03:32:57;;;;;;;22.50;16.05;;;;;;;19.75;95.08;96973.78;5053797;28;20400;-80
2022/07/27 03:35:23;;;;;;;22.73;16.27;;;;;;;19.74;94.39;96977.53;5054010;28;20495;-81
2022/07/27 03:37:49;;;;;;;23.75;15.93;;;;;;;19.68;94.63;96980.06;5070173;28;20017;-80
2022/07/27 03:40:14;;;;;;;22.85;16.77;;;;;;;19.64;94.71;96979.53;5050658;28;20448;-80
2022/07/27 03:42:40;;;;;;;27.67;16.65;;;;;;;19.65;94.99;96986.69;5070090;28;20484;-80
2022/07/27 03:45:07;;;;;;;21.25;15.90;;;;;;;19.76;94.68;96999.94;5057948;28;20108;-81
2022/07/27 03:47:33;;;;;;;27.83;16.25;;;;;;;19.80;94.18;96995.88;5070398;28;20468;-81
2022/07/27 03:49:58;;;;;;;24.48;15.55;;;;;;;19.84;94.09;96990.97;5049536;28;20028;-80
2022/07/27 03:52:24;;;;;;;24.75;16.60;;;;;;;19.83;93.91;96990.13;5053771;28;20056;-81
2022/07/27 03:54:49;;;;;;;26.90;16.95;;;;;;;19.85;93.67;96982.66;5070655;28;20016;-80
2022/07/27 03:57:15;;;;;;;27.55;16.33;;;;;;;19.94;93.30;96994.38;5066734;28;20174;-80
2022/07/27 03:59:40;;;;;;;24.30;16.35;;;;;;;19.96;93.31;97001.31;5036395;28;20044;-80
2022/07/27 04:02:06;;;;;;;29.50;18.38;;;;;;;19.85;94.31;97001.66;5053211;28;20049;-81
2022/07/27 04:04:32;;;;;;;34.00;21.85;;;;;;;19.91;94.21;96998.28;5053427;28;20070;-81
2022/07/27 04:06:57;;;;;;;25.10;16.92;;;;;;;20.00;93.66;97001.84;5065470;28;20029;-80
2022/07/27 04:09:23;;;;;;;23.45;17.00;;;;;;;20.02;93.98;97006.13;5035850;28;20032;-80
2022/07/27 04:11:49;;;;;;;35.50;22.50;;;;;;;20.05;93.42;96995.94;5053309;28;20028;-81
2022/07/27 04:14:15;;;;;;;37.05;20.75;;;;;;;20.14;92.23;96995.78;5061555;28;20523;-81
2022/07/27 04:16:41;;;;;;;25.35;18.38;;;;;;;20.23;92.36;96996.63;5070813;28;20476;-81
2022/07/27 04:19:06;;;;;;;28.70;18.65;;;;;;;20.22;91.95;97001.22;5047743;28;20484;-81
2022/07/27 04:21:34;;;;;;;29.65;17.77;;;;;;;20.22;91.46;96995.78;5069991;28;20136;-80
2022/07/27 04:24:00;;;;;;;31.63;19.00;;;;;;;20.25;90.91;96989.16;5067041;28;20554;-81
2022/07/27 04:26:26;;;;;;;29.35;18.48;;;;;;;20.50;90.63;97005.34;5052886;28;20028;-81
2022/07/27 04:28:52;;;;;;;35.20;22.05;;;;;;;20.61;89.37;97006.84;5033441;28;20032;-81
2022/07/27 04:31:17;;;;;;;39.65;24.95;;;;;;;20.67;88.55;96995.31;5040038;28;20257;-81
2022/07/27 04:33:43;;;;;;;27.75;17.85;;;;;;;20.88;87.54;97013.81;5069905;28;20039;-81
2022/07/27 04:36:09;;;;;;;39.05;25.80;;;;;;;21.30;85.22;97003.53;5042215;28;20036;-80
2022/07/27 04:38:34;;;;;;;22.83;15.73;;;;;;;22.04;80.18;97011.25;5052890;28;20073;-81
2022/07/27 04:41:00;;;;;;;28.55;19.75;;;;;;;23.12;74.73;97007.34;5069622;28;20028;-81
2022/07/27 04:43:25;;;;;;;36.80;17.27;;;;;;;23.98;70.60;97012.13;5069437;28;20097;-81
2022/07/27 04:45:51;;;;;;;22.55;16.00;;;;;;;23.67;71.02;97014.25;5039291;28;20116;-79
2022/07/27 04:48:17;;;;;;;35.17;15.82;;;;;;;23.32;72.65;97031.34;5052043;28;20017;-80
2022/07/27 04:50:44;;;;;;;28.38;16.38;;;;;;;22.97;74.20;97028.28;5069274;28;20025;-81
2022/07/27 04:53:11;;;;;;;32.55;16.23;;;;;;;22.90;75.27;97032.78;5056066;28;20400;-80
2022/07/27 04:55:41;;;;;;;24.90;15.95;;;;;;;22.83;76.34;97045.44;5049557;28;20400;-80
2022/07/27 04:58:06;;;;;;;30.48;15.50;;;;;;;22.66;77.58;97052.06;5069396;28;20028;-79
2022/07/27 05:00:32;;;;;;;26.90;17.52;;;;;;;22.73;77.58;97047.59;5055341;28;20124;-80
2022/07/27 05:02:58;;;;;;;42.83;16.30;;;;;;;22.44;77.53;97041.97;5069515;28;20028;-80
2022/07/27 05:05:23;;;;;;;32.17;17.02;;;;;;;22.17;78.38;97037.06;5052795;28;20025;-79
2022/07/27 05:07:49;;;;;;;22.83;16.33;;;;;;;22.34;78.49;97052.25;5069428;28;20077;-78
2022/07/27 05:10:15;;;;;;;29.35;16.85;;;;;;;22.55;77.58;97057.91;5041519;28;20506;-79
2022/07/27 05:12:41;;;;;;;31.85;16.20;;;;;;;22.73;77.01;97047.59;5033015;28;20116;-81
2022/07/27 05:15:07;;;;;;;31.90;16.65;;;;;;;23.04;75.71;97056.50;5043005;28;20536;-79
2022/07/27 05:17:33;;;;;;;27.05;15.40;;;;;;;23.26;74.24;97052.03;5042733;28;20056;-80
2022/07/27 05:19:59;;;;;;;25.23;14.57;;;;;;;23.30;72.99;97045.19;5041444;28;20510;-80
2022/07/27 05:22:25;;;;;;;30.88;15.85;;;;;;;23.52;71.71;97049.75;5052915;28;20050;-81
2022/07/27 05:24:50;;;;;;;23.27;13.63;;;;;;;23.71;71.06;97048.34;5044010;28;20428;-84
2022/07/27 05:27:16;;;;;;;30.08;15.10;;;;;;;24.49;67.66;97053.09;5052427;28;20032;-80
2022/07/27 05:29:42;;;;;;;18.75;13.57;;;;;;;25.52;63.66;97048.84;5052403;28;20092;-81
2022/07/27 05:32:08;;;;;;;23.98;14.00;;;;;;;27.25;58.21;97033.63;5051143;28;20407;-79
2022/07/27 05:34:33;;;;;;;20.50;14.20;;;;;;;28.42;54.45;97024.28;5048857;28;20020;-80
2022/07/27 05:36:59;;;;;;;19.42;12.52;;;;;;;29.46;51.16;97030.16;5051274;28;20116;-80
2022/07/27 05:39:25;;;;;;;22.33;12.95;;;;;;;30.79;47.44;97024.78;5048809;28;20104;-79
2022/07/27 05:41:51;;;;;;;23.25;14.05;;;;;;;31.05;46.54;97025.25;5067690;28;20029;-80
2022/07/27 05:44:16;;;;;;;20.20;13.75;;;;;;;31.68;44.68;97014.44;5063303;28;20032;-80
2022/07/27 05:47:01;;;;;;;23.23;13.02;;;;;;;32.51;43.22;97019.59;5049899;28;20400;-80
2022/07/27 05:49:27;;;;;;;19.15;13.30;;;;;;;33.15;41.13;97020.28;5060881;28;20059;-80
2022/07/27 05:51:52;;;;;;;17.75;12.50;;;;;;;33.09;40.61;97021.28;5050686;28;20476;-78
2022/07/27 05:54:18;;;;;;;21.15;13.85;;;;;;;33.38;40.20;97020.13;5070375;28;20031;-79
2022/07/27 05:56:44;;;;;;;16.25;12.25;;;;;;;33.61;39.83;97021.94;5043733;28;20025;-79
2022/07/27 05:59:10;;;;;;;18.52;11.60;;;;;;;34.57;36.74;97001.06;5052019;28;20021;-79
2022/07/27 06:01:37;;;;;;;14.15;11.20;;;;;;;35.58;35.16;96991.84;5048322;28;20047;-80
2022/07/27 06:04:03;;;;;;;14.38;11.02;;;;;;;35.78;34.43;97000.31;5054329;28;20444;-79
2022/07/27 06:09:13;;;;;;;15.43;10.27;;;;;;;36.01;33.39;97001.03;5064599;28;20027;-79
2022/07/27 06:11:38;;;;;;;17.95;10.43;;;;;;;36.81;32.32;97000.59;5072321;28;20033;-80
2022/07/27 06:14:04;;;;;;;40.40;11.80;;;;;;;36.40;32.62;97000.44;5072373;28;20549;-80
2022/07/27 06:16:30;;;;;;;14.80;10.50;;;;;;;35.10;33.85;96995.56;5072264;28;20031;-80
2022/07/27 06:18:55;;;;;;;11.75;10.20;;;;;;;34.49;35.32;96998.75;5055414;28;20033;-80
2022/07/27 06:21:25;;;;;;;14.43;10.88;;;;;;;35.14;33.98;96999.50;5042020;28;20025;-80
2022/07/27 06:23:52;;;;;;;16.20;10.73;;;;;;;36.11;33.06;96995.56;5053780;28;20035;-80
2022/07/27 06:26:17;;;;;;;18.08;11.20;;;;;;;36.77;32.39;96991.94;5072248;28;20024;-81
2022/07/27 06:28:43;;;;;;;14.00;10.77;;;;;;;36.70;32.79;96993.34;5055339;28;20021;-81
2022/07/27 06:31:09;;;;;;;14.40;10.90;;;;;;;36.66;32.66;96997.78;5052509;28;20136;-80
2022/07/27 06:33:34;;;;;;;23.58;10.88;;;;;;;36.54;32.95;97006.38;5055334;28;20024;-80
2022/07/27 06:36:00;;;;;;;25.73;11.93;;;;;;;37.75;31.47;97001.00;5055352;28;20040;-79
2022/07/27 06:38:26;;;;;;;19.70;11.60;;;;;;;38.93;30.22;96998.44;5049654;28;20174;-80
2022/07/27 06:40:52;;;;;;;23.23;11.80;;;;;;;38.07;31.21;97011.03;5052448;28;20032;-80
2022/07/27 06:43:20;;;;;;;20.75;11.07;;;;;;;37.62;31.78;97001.59;5055219;28;20028;-80
2022/07/27 06:45:48;;;;;;;32.03;21.63;;;;;;;35.70;34.04;97000.00;5056761;28;20476;-80
2022/07/27 06:48:14;;;;;;;22.40;14.05;;;;;;;36.14;33.94;97011.72;5044506;28;20057;-79
2022/07/27 06:50:40;;;;;;;17.20;11.35;;;;;;;37.13;32.33;96980.91;5055183;28;20031;-81
2022/07/27 06:53:06;;;;;;;40.70;29.83;;;;;;;38.14;31.78;97006.00;5054728;28;20036;-80
2022/07/27 06:55:31;;;;;;;37.45;15.68;;;;;;;38.99;30.87;96994.47;5071736;28;20048;-80
2022/07/27 06:57:57;;;;;;;18.05;10.63;;;;;;;38.82;29.97;96982.84;5047743;28;20040;-80
2022/07/27 07:00:23;;;;;;;20.88;11.73;;;;;;;38.55;30.29;96981.56;5046368;28;20052;-80
2022/07/27 07:02:57;;;;;;;18.27;10.27;;;;;;;38.15;30.82;96976.94;5071198;28;20035;-81
2022/07/27 07:05:24;;;;;;;11.60;10.10;;;;;;;39.47;29.80;96980.72;5071367;28;20047;-80
2022/07/27 07:07:49;;;;;;;12.98;9.27;;;;;;;40.94;28.08;96975.22;5054511;28;20048;-80
2022/07/27 07:10:15;;;;;;;15.90;9.40;;;;;;;41.70;26.39;96975.97;5070847;28;20028;-81
2022/07/27 07:12:41;;;;;;;15.65;9.68;;;;;;;42.06;25.99;96966.59;5063326;28;20024;-80
2022/07/27 07:15:07;;;;;;;16.00;9.95;;;;;;;42.54;25.23;96963.41;5044675;28;20071;-80
2022/07/27 07:17:33;;;;;;;11.45;9.65;;;;;;;42.91;25.23;96963.19;5071199;28;20089;-81
2022/07/27 07:19:58;;;;;;;12.55;9.68;;;;;;;42.40;25.38;96965.38;5046064;28;20123;-79
2022/07/27 07:22:24;;;;;;;16.77;9.50;;;;;;;43.30;24.88;96944.81;5044461;28;20036;-80
2022/07/27 07:24:50;;;;;;;11.50;9.32;;;;;;;42.78;25.11;96952.78;5054269;28;20113;-81
2022/07/27 07:27:19;;;;;;;22.33;11.43;;;;;;;41.13;26.29;96950.75;5045806;28;20024;-81
2022/07/27 07:29:45;;;;;;;19.08;11.05;;;;;;;38.33;29.52;96953.94;5071234;28;20052;-80
2022/07/27 07:32:11;;;;;;;23.95;11.05;;;;;;;38.76;29.43;96956.00;5037209;28;20151;-80
2022/07/27 07:34:36;;;;;;;19.60;9.88;;;;;;;39.39;28.75;96959.78;5042075;28;20116;-80
2022/07/27 07:37:02;;;;;;;16.55;9.93;;;;;;;40.65;27.98;96953.97;5059593;28;20433;-80
2022/07/27 07:39:27;;;;;;;15.63;10.13;;;;;;;40.59;27.62;96947.59;5070579;28;20539;-81
2022/07/27 07:41:53;;;;;;;22.05;11.20;;;;;;;41.02;26.71;96949.25;5047193;28;20030;-80
2022/07/27 07:44:18;;;;;;;20.42;10.55;;;;;;;42.29;25.98;96956.34;5070420;28;20488;-83
2022/07/27 07:46:44;;;;;;;13.02;9.93;;;;;;;42.82;25.33;96951.00;5062250;28;20060;-81
2022/07/27 07:49:10;;;;;;;14.05;10.00;;;;;;;42.46;25.76;96958.50;5053678;28;20025;-82
2022/07/27 07:51:36;;;;;;;12.13;9.70;;;;;;;42.57;25.61;96962.78;5054018;28;20050;-82
2022/07/27 07:54:02;;;;;;;14.70;9.65;;;;;;;42.97;24.96;96958.25;5070561;28;20032;-79
2022/07/27 07:56:27;;;;;;;21.92;9.52;;;;;;;43.75;23.86;96954.13;5070236;28;20024;-81
2022/07/27 07:58:53;;;;;;;12.68;9.60;;;;;;;43.62;23.51;96947.41;5050061;28;20033;-80
2022/07/27 08:01:19;;;;;;;14.13;8.98;;;;;;;42.27;24.54;96946.53;5059980;28;20056;-81
2022/07/27 08:03:44;;;;;;;15.55;10.05;;;;;;;42.76;24.59;96955.06;5053550;28;20155;-81
2022/07/27 08:06:10;;;;;;;17.98;9.77;;;;;;;43.66;23.84;96948.41;5045112;28;20115;-81
2022/07/27 08:08:36;;;;;;;19.17;8.45;;;;;;;42.84;23.32;96940.25;5070246;28;20127;-80
2022/07/27 08:11:01;;;;;;;21.13;8.73;;;;;;;42.73;23.46;96947.25;5052063;28;20070;-81
2022/07/27 08:13:27;;;;;;;14.38;8.32;;;;;;;42.93;23.30;96952.41;5053029;28;20028;-81
2022/07/27 08:15:52;;;;;;;9.20;7.05;;;;;;;43.09;22.46;96953.75;5051855;28;20103;-81
2022/07/27 08:18:19;;;;;;;9.63;7.18;;;;;;;42.47;22.41;96934.84;5036381;28;20041;-81
2022/07/27 08:20:45;;;;;;;8.45;6.63;;;;;;;43.81;21.76;96939.56;5061679;28;20157;-82
2022/07/27 08:23:12;;;;;;;8.75;6.40;;;;;;;43.97;21.86;96945.63;5069790;28;20039;-81
2022/07/27 08:25:38;;;;;;;7.28;6.35;;;;;;;44.77;20.21;96939.66;5053291;28;20405;-81
2022/07/27 08:28:04;;;;;;;9.48;5.72;;;;;;;45.50;20.06;96937.94;5051872;28;20024;-81
2022/07/27 08:30:30;;;;;;;10.40;6.43;;;;;;;45.56;19.93;96940.25;5052843;28;20036;-81
2022/07/27 08:32:59;;;;;;;12.77;6.30;;;;;;;45.31;20.18;96938.28;5053300;28;20483;-81
2022/07/27 08:35:26;;;;;;;10.30;6.55;;;;;;;43.32;21.59;96939.69;5061270;28;20111;-80
2022/07/27 08:37:52;;;;;;;15.52;6.72;;;;;;;44.15;21.52;96936.97;5065328;28;20488;-81
2022/07/27 08:40:18;;;;;;;17.02;6.88;;;;;;;43.43;22.02;96929.88;5033620;28;20119;-81
2022/07/27 08:42:45;;;;;;;10.73;6.25;;;;;;;41.74;23.25;96927.28;5052998;28;20454;-80
2022/07/27 08:45:14;;;;;;;9.35;6.88;;;;;;;40.25;25.04;96932.88;5052928;28;20403;-80
2022/07/27 08:47:40;;;;;;;16.63;7.18;;;;;;;41.66;23.51;96942.00;5052930;28;20514;-80
2022/07/27 08:50:24;;;;;;;12.98;7.75;;;;;;;43.54;22.19;96925.63;5052859;28;20032;-81
2022/07/27 08:52:59;;;;;;;12.45;6.60;;;;;;;44.29;21.15;96936.84;5046229;28;20028;-81
2022/07/27 08:55:26;;;;;;;9.30;6.60;;;;;;;44.97;20.50;96922.13;5044215;28;20476;-82
2022/07/27 08:57:52;;;;;;;10.38;6.38;;;;;;;45.15;20.45;96925.78;5056382;28;20400;-81
2022/07/27 09:00:20;;;;;;;8.68;5.93;;;;;;;45.50;20.15;96915.31;5056280;28;20056;-82
2022/07/27 09:02:46;;;;;;;19.10;6.68;;;;;;;46.11;20.43;96914.88;5052811;28;20028;-81
2022/07/27 09:05:13;;;;;;;7.82;6.35;;;;;;;46.47;19.10;96905.03;5049463;28;20029;-81
2022/07/27 09:07:38;;;;;;;12.52;6.50;;;;;;;46.26;19.31;96914.28;5067458;28;20111;-80
2022/07/27 09:10:05;;;;;;;10.98;6.50;;;;;;;46.31;19.25;96919.75;5042861;28;20119;-81
2022/07/27 09:12:32;;;;;;;9.70;6.90;;;;;;;46.49;19.37;96916.84;5044178;28;20028;-81
2022/07/27 09:15:09;;;;;;;9.50;6.07;;;;;;;46.28;19.51;96906.28;5040454;28;20079;-81
2022/07/27 09:17:35;;;;;;;10.15;6.35;;;;;;;45.63;19.95;96891.66;5034339;28;20500;-81
2022/07/27 09:20:05;;;;;;;8.57;6.75;;;;;;;45.30;20.19;96894.22;5052456;28;20029;-82
2022/07/27 09:22:43;;;;;;;11.60;6.47;;;;;;;44.45;20.69;96903.38;5052284;28;20031;-81
2022/07/27 09:25:12;;;;;;;18.02;7.10;;;;;;;44.85;20.48;96902.16;5049423;28;20125;-81
2022/07/27 09:27:38;;;;;;;11.77;6.72;;;;;;;44.11;20.75;96879.50;5051241;28;20046;-81
2022/07/27 09:30:06;;;;;;;11.77;7.70;;;;;;;45.05;19.89;96895.84;5069391;28;20460;-81
2022/07/27 09:32:32;;;;;;;20.00;7.22;;;;;;;46.15;19.33;96886.69;5053983;28;20123;-81
2022/07/27 09:34:58;;;;;;;9.82;6.57;;;;;;;46.05;19.41;96902.06;5052875;28;20107;-81
2022/07/27 09:37:27;;;;;;;8.23;6.15;;;;;;;46.33;18.80;96891.91;5056301;28;20055;-81
2022/07/27 09:40:25;;;;;;;11.82;6.45;;;;;;;47.24;18.54;96885.53;5047904;28;20017;-81
2022/07/27 09:43:17;;;;;;;10.75;6.45;;;;;;;47.04;18.49;96888.34;5016416;28;20033;-81
2022/07/27 09:45:43;;;;;;;9.13;7.00;;;;;;;46.77;18.79;96892.50;5043421;28;20037;-81
2022/07/27 09:48:10;;;;;;;8.88;6.40;;;;;;;47.90;17.83;96894.06;5054961;28;20021;-81
2022/07/27 09:50:39;;;;;;;15.50;6.20;;;;;;;45.80;19.15;96894.47;5055936;28;20403;-81
2022/07/27 09:53:12;;;;;;;7.82;6.60;;;;;;;45.40;19.27;96887.38;5067533;28;20498;-81
2022/07/27 09:55:40;;;;;;;10.93;6.70;;;;;;;45.65;19.61;96878.84;5044300;28;20037;-81
2022/07/27 09:58:06;;;;;;;11.80;5.57;;;;;;;43.83;20.59;96878.06;5056149;28;20481;-80
2022/07/27 10:00:31;;;;;;;11.93;6.32;;;;;;;43.67;21.46;96879.59;5065508;28;20101;-81
2022/07/27 10:02:58;;;;;;;12.52;5.70;;;;;;;42.76;21.80;96876.25;5064218;28;20452;-81
2022/07/27 10:05:24;;;;;;;7.82;5.90;;;;;;;43.70;21.50;96885.44;5041635;28;20053;-82
2022/07/27 10:07:52;;;;;;;11.27;6.55;;;;;;;44.28;21.03;96875.09;5070011;28;20139;-81
2022/07/27 10:10:18;;;;;;;9.60;5.80;;;;;;;46.08;19.31;96875.94;5052319;28;20029;-81
2022/07/27 10:12:44;;;;;;;12.45;7.35;;;;;;;46.76;18.87;96863.34;5070279;28;20021;-81
2022/07/27 10:15:12;;;;;;;10.73;5.85;;;;;;;47.13;18.44;96857.94;5052195;28;20129;-81
2022/07/27 10:17:41;;;;;;;20.52;5.78;;;;;;;46.30;19.25;96861.47;5046002;28;20033;-81
2022/07/27 10:20:08;;;;;;;7.68;6.28;;;;;;;46.97;18.63;96857.75;5055523;28;20055;-82
2022/07/27 10:22:52;;;;;;;9.23;5.68;;;;;;;45.97;19.13;96863.28;5055853;28;20150;-82
2022/07/27 10:25:18;;;;;;;8.23;5.50;;;;;;;45.64;19.26;96859.38;5055392;28;20437;-82
2022/07/27 10:28:09;;;;;;;11.65;5.57;;;;;;;46.10;18.38;96859.44;5055604;28;20023;-81
2022/07/27 10:30:35;;;;;;;6.45;5.80;;;;;;;47.43;17.43;96847.31;5062741;28;20036;-82
2022/07/27 10:33:39;;;;;;;15.32;5.50;;;;;;;47.26;17.96;96851.97;5052537;28;20040;-83
2022/07/27 10:36:13;;;;;;;9.60;5.70;;;;;;;46.25;18.35;96852.34;5070646;28;20120;-81
2022/07/27 10:39:05;;;;;;;6.85;5.25;;;;;;;46.02;18.59;96848.97;5066485;28;20029;-81
2022/07/27 10:41:34;;;;;;;7.57;5.65;;;;;;;44.93;19.58;96842.03;5055183;28;20062;-82
2022/07/27 10:44:17;;;;;;;7.70;5.68;;;;;;;45.53;19.57;96852.44;5054817;28;20034;-82
2022/07/27 10:46:58;;;;;;;11.13;5.70;;;;;;;46.08;18.79;96841.13;5072059;28;20056;-81
2022/07/27 10:49:24;;;;;;;8.35;5.63;;;;;;;46.75;18.86;96849.56;5055055;28;20025;-82
2022/07/27 10:51:54;;;;;;;8.15;5.28;;;;;;;47.18;18.68;96847.22;5063331;28;20503;-81
2022/07/27 10:54:26;;;;;;;9.65;5.35;;;;;;;46.69;18.02;96839.59;5046592;28;20047;-82
2022/07/27 10:56:54;;;;;;;6.38;5.38;;;;;;;44.66;19.58;96822.56;5071553;28;20444;-80
2022/07/27 10:59:38;;;;;;;7.50;5.88;;;;;;;44.84;19.42;96826.22;5046285;28;20036;-81
2022/07/27 11:02:12;;;;;;;11.00;5.90;;;;;;;46.06;18.84;96821.66;5054349;28;20056;-82
2022/07/27 11:04:50;;;;;;;8.88;5.18;;;;;;;47.64;17.74;96826.25;5054583;28;20024;-83
2022/07/27 11:07:17;;;;;;;5.63;5.13;;;;;;;47.13;17.98;96821.09;5071344;28;20050;-81
2022/07/27 11:09:43;;;;;;;7.40;5.57;;;;;;;46.56;18.33;96818.03;5071114;28;20468;-82
2022/07/27 11:12:11;;;;;;;8.70;6.22;;;;;;;47.90;17.25;96813.78;5054446;28;20048;-82
2022/07/27 11:14:50;;;;;;;10.65;5.47;;;;;;;49.05;16.37;96806.56;5051236;28;20025;-82
2022/07/27 11:17:18;;;;;;;6.05;5.13;;;;;;;49.05;16.49;96810.22;5068830;28;20032;-82
2022/07/27 11:19:44;;;;;;;6.40;5.28;;;;;;;48.63;17.05;96803.25;5066099;28;20025;-82
2022/07/27 11:22:10;;;;;;;6.80;4.88;;;;;;;47.82;17.22;96804.16;5051292;28;20041;-82
2022/07/27 11:24:35;;;;;;;8.27;5.80;;;;;;;47.87;17.39;96801.13;5050487;28;20510;-81